Time;durP1;ratioP1;P1;durP2;ratioP2;P2;SDS_P1;SDS_P2;PMS_P1;PMS_P2;Temp;Humidity;BMP_temperature;BMP_pressure;BME280_temperature;BME280_humidity;BME280_pressure;Samples;Min_cycle;Max_cycle;Signal;HPM_P1;HPM_P2
2023/08/29 00:02:18;;;;;;;1.60;1.50;;;25.00;57.00;;;;;;5033579;28;20700;-70
2023/08/29 00:04:43;;;;;;;1.73;1.33;;;25.00;57.00;;;;;;5033746;28;20231;-70
2023/08/29 00:07:09;;;;;;;2.87;1.43;;;25.00;57.00;;;;;;5033809;28;20168;-70
2023/08/29 00:09:35;;;;;;;1.50;1.40;;;25.00;57.00;;;;;;5033692;28;20707;-71
2023/08/29 00:12:00;;;;;;;1.57;1.43;;;25.00;57.00;;;;;;5033892;28;20191;-70
2023/08/29 00:14:26;;;;;;;1.40;1.20;;;25.00;57.00;;;;;;5033630;28;20696;-70
2023/08/29 00:16:52;;;;;;;1.50;1.40;;;25.00;57.00;;;;;;5033087;28;20222;-69
2023/08/29 00:19:17;;;;;;;1.67;1.57;;;25.00;57.00;;;;;;5032797;28;20222;-70
2023/08/29 00:21:43;;;;;;;1.73;1.40;;;25.00;57.00;;;;;;5033446;28;20218;-70
2023/08/29 00:24:09;;;;;;;1.60;1.40;;;25.00;57.00;;;;;;5033365;28;20260;-70
2023/08/29 00:26:34;;;;;;;1.83;1.50;;;25.00;57.00;;;;;;5033395;28;20176;-71
2023/08/29 00:29:00;;;;;;;1.60;1.33;;;25.00;57.00;;;;;;5033370;28;20818;-70
2023/08/29 00:31:25;;;;;;;1.40;1.30;;;25.00;57.00;;;;;;5033134;28;20748;-70
2023/08/29 00:33:53;;;;;;;1.40;1.20;;;25.00;57.00;;;;;;5033273;28;20184;-71
2023/08/29 00:36:19;;;;;;;2.23;1.40;;;25.00;57.00;;;;;;5033226;28;20727;-69
2023/08/29 00:38:44;;;;;;;2.10;1.40;;;25.00;57.00;;;;;;5033165;28;20415;-71
2023/08/29 00:41:10;;;;;;;1.40;1.27;;;25.00;57.00;;;;;;5033028;28;20479;-70
2023/08/29 00:43:37;;;;;;;1.53;1.43;;;25.00;57.10;;;;;;5031767;28;20187;-70
2023/08/29 00:46:04;;;;;;;1.80;1.50;;;25.00;57.60;;;;;;5033060;28;20410;-70
2023/08/29 00:48:31;;;;;;;1.40;1.30;;;25.00;57.10;;;;;;5033240;28;20407;-70
2023/08/29 00:50:57;;;;;;;1.53;1.33;;;25.00;57.10;;;;;;5033125;28;20970;-70
2023/08/29 00:53:25;;;;;;;1.60;1.33;;;25.00;57.10;;;;;;5033092;28;20398;-70
2023/08/29 00:55:51;;;;;;;1.60;1.40;;;25.00;57.10;;;;;;5033060;28;20489;-70
2023/08/29 00:58:17;;;;;;;1.90;1.37;;;25.00;57.10;;;;;;5032471;28;20552;-70
2023/08/29 01:00:43;;;;;;;1.40;1.30;;;25.00;57.10;;;;;;5031924;28;20258;-70
2023/08/29 01:03:08;;;;;;;1.30;1.20;;;25.00;57.10;;;;;;5032713;28;20497;-71
2023/08/29 01:05:34;;;;;;;1.43;1.33;;;25.00;57.10;;;;;;5032569;28;20449;-70
2023/08/29 01:08:01;;;;;;;2.10;1.30;;;25.00;57.10;;;;;;5032617;28;20171;-71
2023/08/29 01:11:19;;;;;;;2.00;1.70;;;25.00;57.10;;;;;;5032794;28;20541;-70
2023/08/29 01:13:59;;;;;;;3.30;1.40;;;25.00;57.10;;;;;;4988191;28;20910;-71
2023/08/29 01:16:30;;;;;;;1.40;1.30;;;25.00;57.10;;;;;;5031187;28;20523;-70
2023/08/29 01:18:56;;;;;;;1.60;1.50;;;25.00;57.10;;;;;;5032805;28;20800;-70
2023/08/29 01:21:30;;;;;;;1.53;1.30;;;25.00;57.20;;;;;;5032346;28;20418;-70
2023/08/29 01:24:10;;;;;;;1.90;1.70;;;25.00;57.10;;;;;;5032596;28;20474;-70
2023/08/29 01:26:36;;;;;;;1.37;1.27;;;25.00;57.10;;;;;;5032335;28;20391;-70
2023/08/29 01:29:03;;;;;;;1.97;1.20;;;25.00;57.10;;;;;;5032559;28;20441;-71
2023/08/29 01:31:30;;;;;;;1.67;1.57;;;25.00;57.20;;;;;;5030749;28;20874;-71
2023/08/29 01:33:57;;;;;;;1.87;1.40;;;24.90;57.10;;;;;;5032215;28;20452;-70
2023/08/29 01:36:27;;;;;;;1.77;1.63;;;25.00;57.20;;;;;;5032407;28;20570;-70
2023/08/29 01:38:53;;;;;;;1.83;1.40;;;24.90;57.10;;;;;;5032071;28;20414;-70
2023/08/29 01:41:19;;;;;;;1.50;1.40;;;24.90;57.10;;;;;;5030781;28;20465;-70
2023/08/29 01:43:45;;;;;;;1.43;1.33;;;25.00;57.20;;;;;;5032034;28;20183;-70
2023/08/29 01:46:10;;;;;;;1.27;1.10;;;25.00;57.20;;;;;;5032054;28;20160;-70
2023/08/29 01:48:38;;;;;;;1.43;1.07;;;25.00;57.20;;;;;;5032009;28;20229;-71
2023/08/29 01:51:03;;;;;;;1.90;1.50;;;25.00;57.20;;;;;;5031836;28;20212;-70
2023/08/29 01:53:29;;;;;;;1.50;1.17;;;25.00;57.20;;;;;;5030544;28;20472;-71
2023/08/29 01:55:56;;;;;;;1.30;1.07;;;24.90;56.60;;;;;;5031908;28;20637;-71
2023/08/29 01:58:22;;;;;;;1.40;1.20;;;24.90;57.10;;;;;;5031939;28;20178;-70
2023/08/29 02:00:48;;;;;;;1.40;1.30;;;24.90;57.10;;;;;;5031778;28;20513;-70
2023/08/29 02:03:14;;;;;;;1.40;1.20;;;24.90;57.10;;;;;;5031823;28;20413;-70
2023/08/29 02:05:41;;;;;;;1.40;1.20;;;24.90;57.10;;;;;;5031731;28;20446;-70
2023/08/29 02:08:07;;;;;;;1.97;1.60;;;24.90;57.10;;;;;;5031791;28;20250;-70
2023/08/29 02:10:32;;;;;;;1.40;1.30;;;24.90;57.10;;;;;;5031687;28;20505;-71
2023/08/29 02:12:58;;;;;;;1.57;1.47;;;24.90;57.10;;;;;;5031816;28;20176;-70
2023/08/29 02:15:24;;;;;;;1.27;1.17;;;24.90;57.10;;;;;;5032004;28;20680;-70
2023/08/29 02:17:51;;;;;;;1.30;1.20;;;24.90;57.10;;;;;;5031714;28;20183;-71
2023/08/29 02:20:16;;;;;;;1.37;1.27;;;24.90;57.10;;;;;;5031672;28;20182;-71
2023/08/29 02:22:42;;;;;;;1.30;1.20;;;24.90;57.10;;;;;;5031639;28;20438;-70
2023/08/29 02:25:07;;;;;;;1.30;1.17;;;24.90;57.10;;;;;;5031582;28;20664;-70
2023/08/29 02:27:33;;;;;;;2.33;1.50;;;24.90;57.10;;;;;;5030377;28;20184;-70
2023/08/29 02:29:59;;;;;;;1.37;1.20;;;24.90;57.10;;;;;;5031634;28;20176;-70
2023/08/29 02:32:24;;;;;;;1.50;1.10;;;24.90;57.10;;;;;;5031926;28;20692;-71
2023/08/29 02:34:50;;;;;;;1.70;1.30;;;24.90;57.20;;;;;;5031794;28;20175;-71
2023/08/29 02:37:15;;;;;;;1.40;1.30;;;24.90;57.10;;;;;;5031592;28;20180;-70
2023/08/29 02:39:41;;;;;;;1.47;1.20;;;24.90;57.10;;;;;;5031776;28;20223;-70
2023/08/29 02:42:07;;;;;;;1.60;1.23;;;24.90;57.20;;;;;;5031468;28;20211;-70
2023/08/29 02:44:33;;;;;;;1.30;1.20;;;24.90;57.10;;;;;;5031391;28;20294;-70
2023/08/29 02:46:58;;;;;;;1.50;1.30;;;24.90;57.20;;;;;;5031471;28;20172;-70
2023/08/29 02:49:24;;;;;;;1.23;1.10;;;24.90;57.20;;;;;;5031433;28;20716;-70
2023/08/29 02:51:50;;;;;;;1.20;1.10;;;24.90;57.20;;;;;;5031339;28;20194;-71
2023/08/29 02:54:15;;;;;;;1.23;1.13;;;24.90;57.20;;;;;;5031420;28;20595;-70
2023/08/29 02:56:41;;;;;;;1.87;1.30;;;24.90;57.20;;;;;;5031380;28;20179;-70
2023/08/29 02:59:06;;;;;;;1.20;1.10;;;24.90;57.70;;;;;;5031379;28;20180;-70
2023/08/29 03:01:32;;;;;;;1.40;1.23;;;24.90;57.20;;;;;;5030192;28;20571;-70
2023/08/29 03:03:57;;;;;;;1.40;1.30;;;24.90;57.20;;;;;;5031571;28;20211;-70
2023/08/29 03:06:23;;;;;;;1.37;1.13;;;24.90;57.20;;;;;;5032907;28;20202;-70
2023/08/29 03:08:49;;;;;;;1.87;1.30;;;24.90;57.20;;;;;;5035168;28;20589;-70
2023/08/29 03:11:14;;;;;;;2.07;1.57;;;24.90;57.20;;;;;;5034753;28;20275;-70
2023/08/29 03:13:40;;;;;;;3.87;1.50;;;24.90;57.20;;;;;;5033543;28;20663;-70
2023/08/29 03:16:17;;;;;;;1.60;1.50;;;24.90;57.20;;;;;;5034733;28;20175;-70
2023/08/29 03:18:42;;;;;;;1.37;1.27;;;24.90;57.20;;;;;;5034814;28;20590;-70
2023/08/29 03:21:08;;;;;;;1.20;1.10;;;24.90;57.20;;;;;;5033035;28;20441;-70
2023/08/29 03:23:35;;;;;;;1.37;1.23;;;24.90;57.20;;;;;;5034542;28;20700;-70
2023/08/29 03:26:08;;;;;;;1.80;1.50;;;24.90;57.20;;;;;;5034592;28;20172;-70
2023/08/29 03:28:34;;;;;;;1.53;1.33;;;24.90;57.20;;;;;;5034465;28;20423;-70
2023/08/29 03:31:13;;;;;;;1.43;1.20;;;24.90;57.20;;;;;;5034320;28;20505;-70
2023/08/29 03:33:40;;;;;;;1.40;1.30;;;24.90;57.20;;;;;;5034482;28;20402;-70
2023/08/29 03:36:06;;;;;;;1.50;1.40;;;24.90;57.20;;;;;;5032071;28;20406;-70
2023/08/29 03:38:35;;;;;;;1.40;1.30;;;24.80;57.10;;;;;;5034453;28;20517;-70
2023/08/29 03:41:01;;;;;;;1.53;1.40;;;24.90;57.20;;;;;;5034260;28;20438;-70
2023/08/29 03:43:27;;;;;;;2.13;1.40;;;24.90;57.20;;;;;;5034242;28;20413;-70
2023/08/29 03:45:57;;;;;;;1.23;1.13;;;24.90;57.20;;;;;;5034365;28;20237;-70
2023/08/29 03:48:23;;;;;;;1.57;1.30;;;24.90;57.20;;;;;;5032857;28;20939;-71
2023/08/29 03:50:49;;;;;;;1.60;1.50;;;24.80;57.10;;;;;;5034049;28;20468;-71
2023/08/29 03:53:15;;;;;;;1.50;1.03;;;24.90;57.20;;;;;;5034072;28;20178;-70
2023/08/29 03:55:40;;;;;;;1.60;1.37;;;24.80;57.10;;;;;;5033774;28;20422;-70
2023/08/29 03:58:06;;;;;;;1.30;1.20;;;24.90;57.20;;;;;;5033933;28;20201;-70
2023/08/29 04:00:32;;;;;;;2.03;1.30;;;24.90;57.20;;;;;;5034013;28;20175;-71
2023/08/29 04:02:59;;;;;;;1.40;1.23;;;24.80;57.10;;;;;;5033856;28;20537;-70
2023/08/29 04:05:25;;;;;;;1.70;1.40;;;24.90;57.20;;;;;;5033941;28;20464;-70
2023/08/29 04:07:51;;;;;;;1.53;1.30;;;24.80;57.10;;;;;;5033748;28;20415;-71
2023/08/29 04:10:16;;;;;;;1.23;1.00;;;24.90;57.20;;;;;;5033759;28;20254;-70
2023/08/29 04:12:42;;;;;;;1.40;1.30;;;24.90;57.80;;;;;;5033577;28;20858;-71
2023/08/29 04:15:10;;;;;;;1.93;1.27;;;24.90;57.20;;;;;;5033568;28;20638;-70
2023/08/29 04:17:36;;;;;;;1.40;1.30;;;24.80;57.10;;;;;;5031911;28;20188;-71
2023/08/29 04:20:07;;;;;;;1.47;1.20;;;24.90;57.20;;;;;;5033454;28;20414;-70
2023/08/29 04:22:34;;;;;;;1.50;1.10;;;24.80;57.10;;;;;;5033388;28;20211;-70
2023/08/29 04:24:59;;;;;;;1.40;1.20;;;24.80;57.10;;;;;;5033268;28;20961;-70
2023/08/29 04:27:25;;;;;;;1.43;1.20;;;24.80;57.20;;;;;;5033339;28;20419;-70
2023/08/29 04:29:50;;;;;;;2.00;1.30;;;24.80;57.10;;;;;;5033257;28;20179;-70
2023/08/29 04:32:16;;;;;;;1.40;1.13;;;24.80;57.20;;;;;;5033092;28;20246;-70
2023/08/29 04:34:41;;;;;;;1.73;1.33;;;24.80;57.20;;;;;;5033247;28;20237;-71
2023/08/29 04:37:07;;;;;;;1.53;1.43;;;24.80;57.20;;;;;;5033167;28;20262;-70
2023/08/29 04:39:33;;;;;;;1.43;1.30;;;24.80;57.20;;;;;;5033131;28;20259;-70
2023/08/29 04:41:58;;;;;;;1.60;1.33;;;24.80;57.20;;;;;;5033013;28;20726;-70
2023/08/29 04:44:24;;;;;;;1.10;1.00;;;24.80;57.20;;;;;;5033188;28;20208;-70
2023/08/29 04:46:50;;;;;;;2.67;1.10;;;24.80;57.20;;;;;;5032964;28;20198;-70
2023/08/29 04:49:16;;;;;;;1.40;1.30;;;24.80;57.20;;;;;;5032895;28;20453;-70
2023/08/29 04:51:41;;;;;;;1.80;1.40;;;24.80;57.20;;;;;;5032795;28;20551;-70
2023/08/29 04:54:07;;;;;;;1.33;1.23;;;24.80;57.20;;;;;;5032861;28;20178;-69
2023/08/29 04:56:32;;;;;;;1.03;0.93;;;24.80;57.20;;;;;;5031597;28;20230;-71
2023/08/29 04:58:58;;;;;;;1.37;1.20;;;24.80;57.20;;;;;;5032778;28;20179;-70
2023/08/29 05:01:23;;;;;;;1.30;1.20;;;24.80;57.20;;;;;;5032656;28;20199;-70
2023/08/29 05:03:49;;;;;;;1.40;1.23;;;24.80;57.20;;;;;;5031311;28;20249;-70
2023/08/29 05:06:14;;;;;;;1.30;1.20;;;24.80;57.20;;;;;;5032604;28;20175;-70
2023/08/29 05:08:40;;;;;;;1.70;1.33;;;24.80;57.20;;;;;;5032581;28;20221;-70
2023/08/29 05:11:06;;;;;;;1.50;1.33;;;24.80;57.20;;;;;;5032461;28;20683;-70
2023/08/29 05:13:31;;;;;;;1.30;1.20;;;24.80;57.20;;;;;;5032509;28;20172;-70
2023/08/29 05:15:57;;;;;;;1.60;1.30;;;24.80;57.20;;;;;;5032490;28;20172;-70
2023/08/29 05:18:23;;;;;;;2.17;1.20;;;24.80;57.20;;;;;;5032620;28;20183;-71
2023/08/29 05:20:48;;;;;;;1.20;1.10;;;24.80;57.20;;;;;;5032544;28;20258;-70
2023/08/29 05:23:14;;;;;;;1.30;1.20;;;24.80;57.20;;;;;;5030973;28;20245;-71
2023/08/29 05:25:40;;;;;;;1.43;1.33;;;24.80;57.20;;;;;;5032193;28;20298;-71
2023/08/29 05:28:05;;;;;;;1.40;1.23;;;24.80;57.20;;;;;;5032280;28;20541;-70
2023/08/29 05:30:34;;;;;;;1.83;1.20;;;24.80;57.20;;;;;;5031952;28;20254;-70
2023/08/29 05:33:00;;;;;;;1.23;1.00;;;24.80;57.20;;;;;;5032154;28;20191;-71
2023/08/29 05:35:26;;;;;;;1.30;1.13;;;24.80;57.20;;;;;;5032098;28;20784;-70
2023/08/29 05:37:51;;;;;;;1.30;1.20;;;24.80;57.20;;;;;;5032173;28;20187;-70
2023/08/29 05:40:17;;;;;;;1.50;1.30;;;24.80;57.30;;;;;;5032150;28;20172;-71
2023/08/29 05:42:42;;;;;;;1.20;1.10;;;24.80;57.20;;;;;;5032056;28;20275;-70
2023/08/29 05:45:08;;;;;;;1.40;1.30;;;24.80;57.20;;;;;;5031984;28;20187;-70
2023/08/29 05:47:34;;;;;;;1.30;1.17;;;24.80;57.20;;;;;;5032056;28;20548;-70
2023/08/29 05:49:59;;;;;;;1.30;1.00;;;24.80;57.20;;;;;;5032063;28;20413;-70
2023/08/29 05:52:25;;;;;;;1.20;0.93;;;24.80;57.20;;;;;;5031889;28;20191;-69
2023/08/29 05:54:51;;;;;;;1.30;1.20;;;24.80;57.20;;;;;;5030685;28;20269;-71
2023/08/29 05:57:16;;;;;;;1.43;1.20;;;24.80;57.20;;;;;;5031942;28;20175;-70
2023/08/29 05:59:42;;;;;;;1.70;1.37;;;24.80;57.20;;;;;;5030596;28;20184;-71
2023/08/29 06:02:07;;;;;;;1.40;1.10;;;24.80;57.20;;;;;;5031788;28;20203;-70
2023/08/29 06:04:33;;;;;;;1.50;1.20;;;24.80;57.20;;;;;;5031744;28;20707;-70
2023/08/29 06:06:59;;;;;;;1.23;1.13;;;24.80;57.30;;;;;;5030496;28;20168;-70
2023/08/29 06:09:24;;;;;;;1.20;1.10;;;24.80;57.20;;;;;;5031654;28;20163;-70
2023/08/29 06:11:50;;;;;;;1.40;1.20;;;24.80;57.20;;;;;;5031487;28;20609;-70
2023/08/29 06:14:15;;;;;;;1.23;1.10;;;24.80;57.30;;;;;;5031759;28;20179;-69
2023/08/29 06:16:41;;;;;;;1.57;1.40;;;24.80;57.20;;;;;;5031747;28;20176;-71
2023/08/29 06:19:07;;;;;;;2.50;1.60;;;24.80;57.20;;;;;;5031731;28;20175;-70
2023/08/29 06:21:32;;;;;;;2.00;1.50;;;24.80;57.20;;;;;;5031615;28;20203;-70
2023/08/29 06:23:58;;;;;;;1.90;1.80;;;24.80;57.20;;;;;;5031588;28;20765;-70
2023/08/29 06:26:23;;;;;;;1.97;1.70;;;24.80;57.00;;;;;;5029883;28;20175;-71
2023/08/29 06:28:49;;;;;;;2.20;1.90;;;24.70;57.00;;;;;;5029491;28;20186;-69
2023/08/29 06:31:15;;;;;;;2.60;2.30;;;24.70;56.90;;;;;;5031340;28;20203;-70
2023/08/29 06:33:40;;;;;;;2.17;1.87;;;24.70;56.90;;;;;;5031585;28;20156;-70
2023/08/29 06:36:06;;;;;;;2.63;2.30;;;24.70;56.90;;;;;;5031684;28;20178;-70
2023/08/29 06:38:32;;;;;;;1.77;1.53;;;24.70;56.80;;;;;;5031267;28;20167;-70
2023/08/29 06:40:58;;;;;;;2.50;1.70;;;24.70;56.80;;;;;;5031147;28;20227;-71
2023/08/29 06:43:24;;;;;;;2.00;1.77;;;24.70;56.80;;;;;;5034013;28;20171;-70
2023/08/29 06:45:50;;;;;;;2.63;1.87;;;24.70;56.80;;;;;;5034539;28;20458;-70
2023/08/29 06:48:16;;;;;;;2.80;1.80;;;24.70;56.80;;;;;;5034874;28;21095;-69
2023/08/29 06:50:42;;;;;;;2.43;1.50;;;24.70;56.90;;;;;;5035182;28;20175;-70
2023/08/29 06:53:07;;;;;;;1.53;1.43;;;24.70;56.90;;;;;;5035235;28;20211;-70
2023/08/29 06:55:34;;;;;;;1.90;1.70;;;24.70;57.00;;;;;;5035127;28;20168;-70
2023/08/29 06:58:02;;;;;;;2.37;1.50;;;24.70;57.50;;;;;;5035353;28;20242;-70
2023/08/29 07:00:28;;;;;;;1.83;1.60;;;24.70;57.00;;;;;;5034967;28;20414;-70
2023/08/29 07:02:53;;;;;;;2.40;1.40;;;24.70;57.00;;;;;;5033819;28;20922;-71
2023/08/29 07:05:20;;;;;;;1.77;1.67;;;24.70;57.00;;;;;;5032556;28;20676;-69
2023/08/29 07:07:45;;;;;;;3.00;1.70;;;24.70;57.00;;;;;;5034586;28;20225;-70
2023/08/29 07:10:11;;;;;;;1.60;1.40;;;24.70;57.10;;;;;;5034598;28;20403;-71
2023/08/29 07:12:37;;;;;;;1.97;1.50;;;24.70;57.10;;;;;;5034625;28;20191;-70
2023/08/29 07:15:02;;;;;;;2.00;1.60;;;24.70;57.10;;;;;;5034592;28;20579;-70
2023/08/29 07:17:29;;;;;;;3.60;1.73;;;24.70;57.10;;;;;;5033099;28;20535;-69
2023/08/29 07:19:54;;;;;;;3.23;1.60;;;24.70;57.10;;;;;;5033287;28;20164;-70
2023/08/29 07:22:20;;;;;;;4.03;1.37;;;24.70;57.10;;;;;;5033422;28;20429;-70
2023/08/29 07:24:45;;;;;;;1.80;1.70;;;24.70;57.10;;;;;;5033423;28;20209;-70
2023/08/29 07:27:11;;;;;;;1.60;1.50;;;24.70;57.10;;;;;;5034386;28;20168;-70
2023/08/29 07:29:37;;;;;;;2.30;1.97;;;24.70;57.10;;;;;;5033599;28;20180;-70
2023/08/29 07:32:02;;;;;;;2.23;2.03;;;24.70;57.10;;;;;;5034304;28;20211;-70
2023/08/29 07:34:28;;;;;;;2.53;1.90;;;24.70;57.10;;;;;;5034505;28;20180;-70
2023/08/29 07:36:54;;;;;;;3.80;1.87;;;24.70;57.20;;;;;;5034433;28;20674;-70
2023/08/29 07:39:20;;;;;;;1.90;1.80;;;24.60;57.00;;;;;;5034356;28;20644;-70
2023/08/29 07:41:46;;;;;;;1.90;1.70;;;24.70;57.10;;;;;;5034229;28;20222;-70
2023/08/29 07:44:12;;;;;;;2.47;1.83;;;24.70;57.20;;;;;;5034435;28;20450;-69
2023/08/29 07:46:38;;;;;;;2.77;1.70;;;24.70;57.10;;;;;;5034254;28;20406;-70
2023/08/29 07:49:10;;;;;;;1.90;1.70;;;24.60;57.00;;;;;;5033004;28;20164;-70
2023/08/29 07:51:35;;;;;;;2.13;1.80;;;24.70;57.10;;;;;;5033495;28;20275;-69
2023/08/29 07:54:01;;;;;;;1.97;1.87;;;24.70;57.20;;;;;;5034101;28;20542;-70
2023/08/29 07:56:27;;;;;;;1.70;1.60;;;24.70;57.20;;;;;;5034059;28;20581;-70
2023/08/29 07:58:52;;;;;;;2.50;2.03;;;24.70;57.20;;;;;;5033993;28;20194;-70
2023/08/29 08:01:18;;;;;;;1.87;1.73;;;24.70;57.20;;;;;;5033895;28;20553;-71
2023/08/29 08:03:44;;;;;;;1.60;1.40;;;24.60;57.10;;;;;;5033852;28;20172;-70
2023/08/29 08:06:09;;;;;;;1.60;1.40;;;24.70;57.20;;;;;;5032579;28;20258;-70
2023/08/29 08:08:35;;;;;;;2.27;1.70;;;24.60;57.10;;;;;;5033782;28;20510;-70
2023/08/29 08:11:00;;;;;;;2.50;1.57;;;24.60;57.10;;;;;;5033953;28;20196;-70
2023/08/29 08:13:28;;;;;;;3.33;1.50;;;24.60;57.70;;;;;;5033647;28;20648;-70
2023/08/29 08:15:53;;;;;;;1.70;1.37;;;24.70;57.20;;;;;;5033644;28;20726;-70
2023/08/29 08:18:19;;;;;;;2.00;1.70;;;24.70;57.20;;;;;;5033621;28;20414;-70
2023/08/29 08:20:44;;;;;;;1.70;1.60;;;24.70;57.20;;;;;;5033519;28;20172;-70
2023/08/29 08:23:10;;;;;;;1.70;1.50;;;24.70;57.20;;;;;;5033526;28;20317;-70
2023/08/29 08:25:36;;;;;;;1.90;1.70;;;24.70;57.20;;;;;;5033621;28;20195;-70
2023/08/29 08:28:02;;;;;;;1.80;1.47;;;24.70;57.20;;;;;;5033466;28;20186;-69
2023/08/29 08:30:28;;;;;;;1.60;1.50;;;24.70;57.20;;;;;;5033613;28;20317;-70
2023/08/29 08:32:54;;;;;;;1.87;1.70;;;24.70;57.20;;;;;;5033251;28;20426;-71
2023/08/29 08:35:20;;;;;;;1.70;1.60;;;24.70;57.20;;;;;;5031980;28;20796;-70
2023/08/29 08:37:46;;;;;;;1.80;1.70;;;24.60;57.10;;;;;;5033209;28;20464;-70
2023/08/29 08:40:14;;;;;;;2.10;1.60;;;24.60;57.00;;;;;;5033449;28;20190;-70
2023/08/29 08:42:40;;;;;;;2.17;1.80;;;24.60;57.00;;;;;;5033057;28;20218;-69
2023/08/29 08:45:07;;;;;;;1.80;1.43;;;24.60;57.00;;;;;;5033055;28;20442;-70
2023/08/29 08:47:35;;;;;;;2.00;1.90;;;24.60;57.00;;;;;;5033057;28;20246;-70
2023/08/29 08:50:02;;;;;;;2.20;2.00;;;24.60;57.10;;;;;;5031700;28;20407;-70
2023/08/29 08:52:30;;;;;;;2.97;1.77;;;24.60;57.00;;;;;;5032902;28;20433;-70
2023/08/29 08:54:56;;;;;;;4.43;1.90;;;24.60;57.00;;;;;;5032913;28;20417;-70
2023/08/29 08:57:23;;;;;;;1.63;1.53;;;24.60;57.00;;;;;;5033127;28;20422;-70
2023/08/29 08:59:49;;;;;;;2.07;1.50;;;24.60;57.00;;;;;;5032772;28;20230;-69
2023/08/29 09:02:16;;;;;;;2.37;1.50;;;24.60;57.00;;;;;;5032706;28;20429;-70
2023/08/29 09:04:42;;;;;;;2.43;1.37;;;24.60;57.00;;;;;;5031771;28;20202;-70
2023/08/29 09:07:07;;;;;;;1.87;1.70;;;24.60;57.00;;;;;;5032672;28;20899;-70
2023/08/29 09:09:33;;;;;;;2.13;1.50;;;24.60;57.00;;;;;;5032648;28;20171;-70
2023/08/29 09:11:59;;;;;;;2.60;1.80;;;24.60;57.00;;;;;;5032609;28;20198;-70
2023/08/29 09:14:26;;;;;;;1.77;1.60;;;24.60;57.00;;;;;;5032836;28;20214;-69
2023/08/29 09:16:54;;;;;;;2.00;1.80;;;24.60;57.00;;;;;;5032514;28;20176;-70
2023/08/29 09:19:20;;;;;;;3.30;1.70;;;24.60;57.00;;;;;;5032742;28;20504;-71
2023/08/29 09:21:45;;;;;;;1.50;1.40;;;24.60;57.00;;;;;;5032364;28;20437;-70
2023/08/29 09:24:12;;;;;;;2.63;1.83;;;24.60;57.00;;;;;;5032370;28;20450;-71
2023/08/29 09:26:39;;;;;;;1.83;1.70;;;24.60;57.00;;;;;;5032377;28;20168;-70
2023/08/29 09:29:19;;;;;;;2.00;1.80;;;24.60;57.00;;;;;;5032305;28;20410;-71
2023/08/29 09:31:48;;;;;;;1.63;1.23;;;24.60;57.00;;;;;;5032258;28;20470;-70
2023/08/29 09:34:30;;;;;;;1.53;1.40;;;24.60;57.00;;;;;;5032238;28;20411;-69
2023/08/29 09:36:58;;;;;;;3.23;1.50;;;24.60;56.90;;;;;;5032287;28;20399;-70
2023/08/29 09:39:24;;;;;;;1.80;1.60;;;24.60;57.00;;;;;;5032401;28;20419;-70
2023/08/29 09:42:04;;;;;;;2.00;1.80;;;24.60;56.90;;;;;;5032063;28;20467;-70
2023/08/29 09:44:37;;;;;;;1.83;1.67;;;24.60;56.90;;;;;;5032292;28;20450;-71
2023/08/29 09:47:05;;;;;;;1.90;1.50;;;24.60;56.90;;;;;;5032102;28;20481;-70
2023/08/29 09:49:51;;;;;;;2.40;1.50;;;24.60;56.90;;;;;;5032291;28;20418;-70
2023/08/29 09:52:20;;;;;;;1.60;1.50;;;24.50;56.80;;;;;;5031343;28;20943;-70
2023/08/29 09:54:50;;;;;;;2.00;1.63;;;24.60;56.90;;;;;;5031950;28;20414;-71
2023/08/29 09:57:21;;;;;;;1.50;1.40;;;24.60;56.90;;;;;;5031958;28;20551;-71
2023/08/29 09:59:48;;;;;;;2.50;1.60;;;24.60;56.90;;;;;;5031893;28;20387;-70
2023/08/29 10:02:17;;;;;;;2.40;2.00;;;24.60;56.90;;;;;;5031832;28;20515;-70
2023/08/29 10:04:46;;;;;;;1.70;1.50;;;24.60;56.90;;;;;;5031890;28;20441;-70
2023/08/29 10:07:19;;;;;;;2.93;1.57;;;24.60;56.90;;;;;;5031800;28;20411;-69
2023/08/29 10:09:45;;;;;;;1.80;1.43;;;24.60;56.90;;;;;;5031802;28;20387;-70
2023/08/29 10:12:11;;;;;;;2.07;1.23;;;24.60;56.90;;;;;;5031764;28;20429;-70
2023/08/29 10:14:38;;;;;;;1.50;1.30;;;24.60;57.00;;;;;;5032059;28;20414;-70
2023/08/29 10:17:06;;;;;;;1.90;1.43;;;24.60;56.90;;;;;;5035181;28;20426;-71
2023/08/29 10:19:33;;;;;;;2.00;1.50;;;24.60;56.90;;;;;;5036065;28;20422;-70
2023/08/29 10:22:00;;;;;;;2.10;1.80;;;24.60;56.90;;;;;;5034759;28;20529;-70
2023/08/29 10:24:27;;;;;;;1.50;1.40;;;24.60;56.80;;;;;;5035608;28;20532;-70
2023/08/29 10:26:53;;;;;;;2.10;1.80;;;24.60;56.80;;;;;;5034627;28;20415;-70
2023/08/29 10:29:19;;;;;;;1.30;1.20;;;24.60;57.40;;;;;;5035693;28;21093;-71
2023/08/29 10:31:46;;;;;;;1.93;1.73;;;24.60;56.80;;;;;;5035451;28;20442;-71
2023/08/29 10:34:13;;;;;;;1.33;1.23;;;24.60;56.90;;;;;;5035545;28;20422;-70
2023/08/29 10:36:39;;;;;;;1.60;1.40;;;24.50;56.80;;;;;;5036116;28;20410;-70
2023/08/29 10:39:09;;;;;;;1.33;1.13;;;24.50;56.80;;;;;;5035526;28;20936;-69
2023/08/29 10:41:48;;;;;;;2.50;1.50;;;24.60;56.80;;;;;;5035408;28;20191;-69
2023/08/29 10:44:35;;;;;;;1.40;1.27;;;24.60;56.70;;;;;;5035304;28;20492;-69
2023/08/29 10:47:20;;;;;;;1.33;1.23;;;24.60;56.80;;;;;;5035395;28;20401;-70
2023/08/29 10:49:47;;;;;;;2.03;1.30;;;24.50;56.70;;;;;;5035469;28;20379;-72
2023/08/29 10:52:14;;;;;;;2.30;1.30;;;24.50;56.70;;;;;;5035094;28;21306;-70
2023/08/29 10:54:40;;;;;;;1.73;1.40;;;24.50;56.80;;;;;;5032974;28;20472;-70
2023/08/29 10:57:27;;;;;;;2.20;1.70;;;24.50;56.80;;;;;;5034819;28;20927;-70
2023/08/29 10:59:53;;;;;;;1.63;1.20;;;24.50;56.80;;;;;;5034419;28;20426;-69
2023/08/29 11:02:26;;;;;;;1.43;1.20;;;24.50;56.90;;;;;;5034916;28;20508;-70
2023/08/29 11:05:04;;;;;;;1.70;1.37;;;24.50;56.80;;;;;;5034887;28;20454;-70
2023/08/29 11:07:31;;;;;;;2.80;1.60;;;24.60;56.90;;;;;;5037712;28;20476;-70
2023/08/29 11:10:22;;;;;;;2.00;1.20;;;24.50;56.90;;;;;;5054145;28;20413;-70
2023/08/29 11:13:06;;;;;;;1.83;1.47;;;24.50;56.80;;;;;;5054266;28;20956;-70
2023/08/29 11:15:47;;;;;;;2.10;1.40;;;24.60;56.90;;;;;;5054004;28;20416;-69
2023/08/29 11:18:33;;;;;;;2.20;1.53;;;24.50;56.80;;;;;;5037859;28;20486;-70
2023/08/29 11:21:06;;;;;;;1.73;1.50;;;24.60;56.90;;;;;;5054255;28;20437;-70
2023/08/29 11:23:43;;;;;;;1.10;1.00;;;24.50;56.80;;;;;;5054422;28;20425;-69
2023/08/29 11:26:09;;;;;;;1.87;1.43;;;24.50;56.90;;;;;;5053831;28;20444;-70
2023/08/29 11:28:43;;;;;;;1.30;1.20;;;24.50;57.00;;;;;;5052653;28;20430;-69
2023/08/29 11:31:09;;;;;;;1.87;1.40;;;24.50;56.90;;;;;;5054386;28;20981;-70
2023/08/29 11:33:36;;;;;;;1.60;1.20;;;24.50;56.90;;;;;;5054300;28;20499;-70
2023/08/29 11:36:07;;;;;;;1.60;1.20;;;24.50;56.90;;;;;;5054187;28;20419;-69
2023/08/29 11:38:33;;;;;;;1.37;1.27;;;24.50;56.80;;;;;;5054345;28;20405;-70
2023/08/29 11:41:00;;;;;;;2.13;1.27;;;24.60;57.00;;;;;;5054049;28;20434;-68
2023/08/29 11:43:27;;;;;;;2.00;1.07;;;24.50;56.80;;;;;;5052735;28;20409;-70
2023/08/29 11:45:57;;;;;;;2.57;1.30;;;24.60;57.00;;;;;;5034659;28;20461;-70
2023/08/29 11:48:28;;;;;;;1.50;1.23;;;24.50;56.80;;;;;;5034183;28;20406;-70
2023/08/29 11:50:55;;;;;;;2.30;1.10;;;24.50;56.80;;;;;;5033959;28;20932;-70
2023/08/29 11:53:22;;;;;;;2.17;1.43;;;24.60;56.80;;;;;;5033876;28;20511;-69
2023/08/29 11:55:47;;;;;;;1.60;1.30;;;24.60;56.80;;;;;;5034400;28;20446;-70
2023/08/29 11:58:13;;;;;;;1.90;1.70;;;24.60;56.90;;;;;;5035153;28;20418;-68
2023/08/29 12:00:39;;;;;;;1.87;1.53;;;24.60;57.00;;;;;;5047528;28;20171;-70
2023/08/29 12:03:05;;;;;;;1.50;1.27;;;24.60;57.00;;;;;;5037276;28;20613;-69
2023/08/29 12:05:31;;;;;;;2.00;1.27;;;24.60;56.90;;;;;;5034036;28;20460;-70
2023/08/29 12:07:56;;;;;;;2.40;1.13;;;24.60;57.00;;;;;;5040504;28;20417;-69
2023/08/29 12:10:23;;;;;;;1.20;1.10;;;24.50;56.90;;;;;;5038526;28;20175;-69
2023/08/29 12:12:48;;;;;;;2.40;1.20;;;24.50;56.90;;;;;;5032870;28;20672;-70
2023/08/29 12:15:14;;;;;;;2.07;1.30;;;24.60;57.00;;;;;;5038627;28;20433;-70
2023/08/29 12:17:49;;;;;;;1.10;0.90;;;24.60;57.00;;;;;;5044045;28;20206;-70
2023/08/29 12:20:15;;;;;;;2.33;1.40;;;24.60;57.00;;;;;;5037473;28;20163;-70
2023/08/29 12:22:52;;;;;;;1.37;1.27;;;24.50;56.90;;;;;;5049577;28;20939;-70
2023/08/29 12:25:19;;;;;;;3.17;1.20;;;24.50;56.90;;;;;;5041166;28;20957;-70
2023/08/29 12:27:45;;;;;;;1.30;1.20;;;24.60;56.90;;;;;;5038562;28;20438;-71
2023/08/29 12:30:14;;;;;;;2.17;1.40;;;24.60;56.90;;;;;;5028203;28;20503;-71
2023/08/29 12:32:43;;;;;;;2.00;1.30;;;24.60;56.90;;;;;;5043813;28;20969;-70
2023/08/29 12:35:10;;;;;;;1.63;1.30;;;24.60;56.90;;;;;;5032735;28;20442;-70
2023/08/29 12:37:36;;;;;;;2.40;1.20;;;24.60;56.90;;;;;;5031686;28;20858;-70
2023/08/29 12:40:05;;;;;;;1.20;1.10;;;24.60;56.90;;;;;;5032919;28;20449;-70
2023/08/29 12:42:31;;;;;;;14.47;1.40;;;24.60;56.90;;;;;;5033005;28;20250;-70
2023/08/29 12:45:00;;;;;;;1.13;1.00;;;24.60;56.90;;;;;;5032863;28;20966;-71
2023/08/29 12:47:25;;;;;;;2.47;1.10;;;24.50;56.90;;;;;;5033094;28;20994;-69
2023/08/29 12:49:51;;;;;;;1.50;1.20;;;24.60;57.00;;;;;;5032819;28;20407;-69